Time;durP1;ratioP1;P1;durP2;ratioP2;P2;SDS_P1;SDS_P2;PMS_P1;PMS_P2;Temp;Humidity;BMP_temperature;BMP_pressure;BME280_temperature;BME280_humidity;BME280_pressure;Samples;Min_cycle;Max_cycle;Signal;HPM_P1;HPM_P2
2022/01/02 00:00:53;;;;;;;;;;;15.60;99.90;;;;;;5010735;28;19928;-64
2022/01/02 00:03:19;;;;;;;;;;;15.90;99.90;;;;;;5013510;28;19937;-62
2022/01/02 00:05:44;;;;;;;;;;;16.10;99.90;;;;;;4999202;28;19925;-64
2022/01/02 00:08:10;;;;;;;;;;;15.70;99.90;;;;;;5024168;28;19921;-62
2022/01/02 00:10:37;;;;;;;;;;;15.70;99.90;;;;;;5034814;28;20014;-71
2022/01/02 00:13:02;;;;;;;;;;;15.60;99.90;;;;;;5047284;28;19928;-69
2022/01/02 00:15:28;;;;;;;;;;;15.70;99.90;;;;;;5050310;28;19921;-69
2022/01/02 00:17:54;;;;;;;;;;;;;;;;;;5028541;28;19944;-67
2022/01/02 00:20:31;;;;;;;;;;;15.60;99.90;;;;;;5033962;28;19964;-71
2022/01/02 00:23:00;;;;;;;;;;;15.90;99.90;;;;;;5034624;28;19921;-71
2022/01/02 00:25:31;;;;;;;;;;;;;;;;;;5021895;28;19921;-63
2022/01/02 00:27:57;;;;;;;;;;;;;;;;;;5030453;28;19921;-64
2022/01/02 00:30:23;;;;;;;;;;;15.80;99.90;;;;;;5023762;28;20330;-69
2022/01/02 00:32:49;;;;;;;;;;;15.70;99.90;;;;;;5024474;28;19921;-70
2022/01/02 00:35:14;;;;;;;;;;;15.40;99.90;;;;;;4995485;28;19925;-62
2022/01/02 00:37:40;;;;;;;;;;;15.60;99.90;;;;;;5026812;28;19928;-70
2022/01/02 00:40:06;;;;;;;;;;;15.40;99.90;;;;;;5026584;28;19921;-69
2022/01/02 00:42:39;;;;;;;;;;;15.60;99.90;;;;;;5015219;28;19927;-70
2022/01/02 00:45:06;;;;;;;;;;;15.40;99.90;;;;;;5034114;28;19925;-70
2022/01/02 00:47:50;;;;;;;;;;;15.60;99.90;;;;;;5007337;28;19921;-63
2022/01/02 00:50:19;;;;;;;;;;;15.60;99.90;;;;;;5009400;28;20424;-64
2022/01/02 00:52:45;;;;;;;;;;;15.40;99.90;;;;;;5015507;28;19932;-62
2022/01/02 00:55:12;;;;;;;;;;;15.90;99.90;;;;;;5032587;28;20008;-64
2022/01/02 00:57:38;;;;;;;;;;;15.50;99.90;;;;;;5023267;28;20063;-62
2022/01/02 01:00:07;;;;;;;;;;;16.00;99.90;;;;;;5014990;28;19965;-63
2022/01/02 01:02:33;;;;;;;;;;;;;;;;;;5027746;28;19929;-67
2022/01/02 01:05:01;;;;;;;;;;;15.50;99.90;;;;;;4996840;28;19932;-63
2022/01/02 01:07:26;;;;;;;;;;;15.60;99.90;;;;;;5024214;28;19944;-62
2022/01/02 01:09:52;;;;;;;;;;;15.70;99.90;;;;;;5021930;28;20364;-70
2022/01/02 01:12:19;;;;;;;;;;;15.70;99.90;;;;;;5025441;28;19983;-69
2022/01/02 01:14:46;;;;;;;;;;;15.50;99.90;;;;;;5032642;28;19931;-72
2022/01/02 01:17:14;;;;;;;;;;;15.80;99.90;;;;;;5031910;28;19920;-71
2022/01/02 01:19:40;;;;;;;;;;;15.50;99.90;;;;;;5014980;28;19928;-72
2022/01/02 01:22:05;;;;;;;;;;;15.80;99.90;;;;;;5021389;28;19921;-63
2022/01/02 01:24:34;;;;;;;;;;;15.80;99.90;;;;;;5023663;28;20366;-62
2022/01/02 01:27:01;;;;;;;;;;;15.80;99.90;;;;;;5025176;28;19922;-70
2022/01/02 01:29:27;;;;;;;;;;;15.40;99.90;;;;;;5022126;28;20367;-72
2022/01/02 01:31:53;;;;;;;;;;;15.80;99.90;;;;;;5029232;28;19920;-70
2022/01/02 01:34:18;;;;;;;;;;;15.60;99.90;;;;;;5026394;28;20449;-72
2022/01/02 01:36:44;;;;;;;;;;;15.70;99.90;;;;;;4997919;28;19925;-70
2022/01/02 01:39:09;;;;;;;;;;;15.70;99.90;;;;;;5019218;28;19974;-72
2022/01/02 01:41:38;;;;;;;;;;;15.50;99.90;;;;;;5014351;28;19928;-72
2022/01/02 01:46:33;;;;;;;;;;;15.50;99.90;;;;;;4997838;28;20012;-72
2022/01/02 01:48:59;;;;;;;;;;;15.80;99.90;;;;;;5027193;28;20015;-72
2022/01/02 01:51:25;;;;;;;;;;;;;;;;;;5018771;28;19999;-70
2022/01/02 01:53:50;;;;;;;;;;;15.60;99.90;;;;;;5029651;28;20298;-72
2022/01/02 01:56:16;;;;;;;;;;;15.50;99.90;;;;;;5032464;28;19926;-72
2022/01/02 01:58:42;;;;;;;;;;;15.60;99.90;;;;;;5029219;28;19917;-72
2022/01/02 02:01:07;;;;;;;;;;;15.50;99.90;;;;;;5036909;28;19921;-71
2022/01/02 02:03:33;;;;;;;;;;;;;;;;;;5033081;28;20383;-71
2022/01/02 02:05:59;;;;;;;;;;;15.60;99.90;;;;;;5025941;28;20268;-72
2022/01/02 02:08:26;;;;;;;;;;;15.80;99.90;;;;;;5038930;28;20008;-71
2022/01/02 02:10:56;;;;;;;;;;;15.80;99.90;;;;;;5035537;28;19960;-72
2022/01/02 02:13:21;;;;;;;;;;;15.60;99.90;;;;;;5017602;28;19968;-72
2022/01/02 02:15:48;;;;;;;;;;;15.80;99.90;;;;;;5003725;28;20398;-72
2022/01/02 02:18:14;;;;;;;;;;;15.70;99.90;;;;;;5014788;28;20329;-72
2022/01/02 02:20:39;;;;;;;;;;;15.80;99.90;;;;;;5019458;28;19925;-72
2022/01/02 02:23:05;;;;;;;;;;;;;;;;;;5022877;28;20375;-71
2022/01/02 02:25:31;;;;;;;;;;;;;;;;;;5001755;28;19975;-72
2022/01/02 02:28:00;;;;;;;;;;;15.80;99.90;;;;;;5001802;28;20345;-71
2022/01/02 02:30:26;;;;;;;;;;;15.60;99.90;;;;;;4996271;28;19921;-71
2022/01/02 02:32:55;;;;;;;;;;;15.90;99.90;;;;;;5003412;28;20387;-71
2022/01/02 02:35:21;;;;;;;;;;;15.60;99.90;;;;;;5000837;28;19956;-71
2022/01/02 02:37:47;;;;;;;;;;;15.70;99.90;;;;;;4967291;28;19921;-72
2022/01/02 02:40:14;;;;;;;;;;;15.80;99.90;;;;;;4999313;28;19925;-72
2022/01/02 02:43:05;;;;;;;;;;;15.80;99.90;;;;;;5008210;28;19921;-72
2022/01/02 02:50:55;;;;;;;;;;;15.60;99.90;;;;;;5018469;28;20019;-71
2022/01/02 02:53:21;;;;;;;;;;;;;;;;;;5021509;28;20416;-71
2022/01/02 02:55:48;;;;;;;;;;;15.90;99.90;;;;;;5026424;28;19921;-72
2022/01/02 03:00:58;;;;;;;;;;;15.90;99.90;;;;;;5001478;28;19929;-71
2022/01/02 03:03:24;;;;;;;;;;;;;;;;;;5031866;28;19951;-70
2022/01/02 03:05:49;;;;;;;;;;;15.70;99.90;;;;;;5013531;28;19921;-71
2022/01/02 03:08:15;;;;;;;;;;;15.60;99.90;;;;;;5007976;28;19928;-71
2022/01/02 03:10:41;;;;;;;;;;;15.80;99.90;;;;;;5009290;28;20390;-72
2022/01/02 03:13:06;;;;;;;;;;;15.90;99.90;;;;;;5000396;28;19921;-71
2022/01/02 03:15:32;;;;;;;;;;;15.80;99.90;;;;;;4997391;28;19921;-72
2022/01/02 03:17:58;;;;;;;;;;;15.60;99.90;;;;;;5004503;28;19933;-71
2022/01/02 03:20:23;;;;;;;;;;;15.60;99.90;;;;;;4996195;28;19991;-62
2022/01/02 03:22:49;;;;;;;;;;;15.70;99.90;;;;;;5032565;28;19956;-62
2022/01/02 03:25:15;;;;;;;;;;;15.60;99.90;;;;;;5036067;28;19921;-63
2022/01/02 03:27:41;;;;;;;;;;;15.70;99.90;;;;;;5026762;28;20264;-62
2022/01/02 03:30:07;;;;;;;;;;;15.80;99.90;;;;;;5031238;28;19921;-62
2022/01/02 03:32:32;;;;;;;;;;;15.50;99.90;;;;;;5002384;28;19964;-63
2022/01/02 03:34:58;;;;;;;;;;;15.80;99.90;;;;;;5020832;28;19986;-63
2022/01/02 03:37:28;;;;;;;;;;;15.60;99.90;;;;;;5007155;28;19932;-63
2022/01/02 03:39:54;;;;;;;;;;;15.70;99.90;;;;;;5008226;28;19965;-62
2022/01/02 03:42:19;;;;;;;;;;;15.90;99.90;;;;;;5004667;28;20452;-63
2022/01/02 03:44:45;;;;;;;;;;;15.70;99.90;;;;;;5035513;28;19921;-62
2022/01/02 03:47:11;;;;;;;;;;;15.80;99.90;;;;;;5034766;28;19925;-62
2022/01/02 03:49:36;;;;;;;;;;;15.70;99.90;;;;;;5014287;28;20008;-62
2022/01/02 03:52:02;;;;;;;;;;;15.80;99.90;;;;;;5031480;28;19929;-71
2022/01/02 03:54:28;;;;;;;;;;;16.00;99.90;;;;;;5034296;28;19918;-62
2022/01/02 03:56:54;;;;;;;;;;;15.90;99.90;;;;;;5029515;28;19976;-63
2022/01/02 03:59:20;;;;;;;;;;;15.70;99.90;;;;;;5027239;28;19925;-62
2022/01/02 04:01:46;;;;;;;;;;;;;;;;;;5013528;28;19927;-62
2022/01/02 04:04:11;;;;;;;;;;;15.70;99.90;;;;;;5031994;28;19968;-70
2022/01/02 04:06:37;;;;;;;;;;;;;;;;;;5019946;28;19983;-70
2022/01/02 04:09:03;;;;;;;;;;;15.50;99.90;;;;;;5015252;28;20017;-70
2022/01/02 04:11:29;;;;;;;;;;;15.70;99.90;;;;;;5032969;28;20271;-62
2022/01/02 04:13:54;;;;;;;;;;;15.80;99.90;;;;;;5026970;28;19979;-64
2022/01/02 04:16:20;;;;;;;;;;;15.70;99.90;;;;;;5021704;28;20008;-63
2022/01/02 04:18:45;;;;;;;;;;;15.70;99.90;;;;;;5010926;28;19925;-62
2022/01/02 04:21:11;;;;;;;;;;;16.00;99.90;;;;;;5015379;28;19928;-63
2022/01/02 04:23:38;;;;;;;;;;;16.00;99.90;;;;;;5032275;28;19930;-62
2022/01/02 04:26:06;;;;;;;;;;;15.60;99.90;;;;;;5032599;28;20302;-62
2022/01/02 04:28:32;;;;;;;;;;;15.80;99.90;;;;;;5034443;28;19920;-62
2022/01/02 04:30:58;;;;;;;;;;;15.90;99.90;;;;;;5028813;28;19972;-63
2022/01/02 04:33:23;;;;;;;;;;;15.60;99.90;;;;;;5028467;28;20413;-62
2022/01/02 04:35:49;;;;;;;;;;;15.80;99.90;;;;;;5014216;28;19957;-62
2022/01/02 04:38:15;;;;;;;;;;;15.70;99.90;;;;;;5030631;28;19948;-63
2022/01/02 04:40:41;;;;;;;;;;;15.80;99.90;;;;;;5014906;28;19928;-62
2022/01/02 04:43:06;;;;;;;;;;;15.70;99.90;;;;;;5027971;28;19921;-62
2022/01/02 04:45:32;;;;;;;;;;;15.90;99.90;;;;;;5033732;28;19983;-62
2022/01/02 04:47:58;;;;;;;;;;;15.90;99.90;;;;;;5022148;28;19928;-63
2022/01/02 04:50:23;;;;;;;;;;;15.70;99.90;;;;;;5014830;28;19926;-63
2022/01/02 04:52:49;;;;;;;;;;;15.70;99.90;;;;;;5004523;28;20020;-63
2022/01/02 04:55:15;;;;;;;;;;;;;;;;;;5027915;28;20371;-63
2022/01/02 04:57:41;;;;;;;;;;;15.80;99.90;;;;;;5006135;28;19944;-62
2022/01/02 05:00:07;;;;;;;;;;;15.70;99.90;;;;;;5028927;28;19955;-62
2022/01/02 05:02:33;;;;;;;;;;;15.80;99.90;;;;;;5014693;28;19976;-63
2022/01/02 05:04:58;;;;;;;;;;;16.00;99.90;;;;;;5010561;28;20004;-62
2022/01/02 05:07:24;;;;;;;;;;;15.80;99.90;;;;;;5003979;28;20023;-62
2022/01/02 05:09:50;;;;;;;;;;;16.00;99.90;;;;;;5034082;28;19925;-64
2022/01/02 05:12:15;;;;;;;;;;;15.80;99.90;;;;;;5027386;28;20295;-64
2022/01/02 05:14:41;;;;;;;;;;;15.90;99.90;;;;;;5003547;28;19917;-63
2022/01/02 05:17:07;;;;;;;;;;;15.60;99.90;;;;;;4997964;28;19921;-62
2022/01/02 05:19:33;;;;;;;;;;;;;;;;;;5030043;28;20298;-64
2022/01/02 05:21:58;;;;;;;;;;;15.80;99.90;;;;;;5032085;28;19921;-63
2022/01/02 05:24:24;;;;;;;;;;;15.70;99.90;;;;;;5034107;28;20389;-63
2022/01/02 05:26:51;;;;;;;;;;;15.60;99.90;;;;;;5032160;28;20328;-63
2022/01/02 05:29:17;;;;;;;;;;;15.70;99.90;;;;;;5015555;28;20378;-64
2022/01/02 05:31:42;;;;;;;;;;;15.80;99.90;;;;;;5031023;28;19928;-71
2022/01/02 05:34:08;;;;;;;;;;;;;;;;;;5018716;28;19917;-69
2022/01/02 05:36:34;;;;;;;;;;;15.90;99.90;;;;;;5031119;28;20044;-68
2022/01/02 05:39:00;;;;;;;;;;;;;;;;;;5015741;28;19917;-70
2022/01/02 05:41:30;;;;;;;;;;;15.80;99.90;;;;;;5033217;28;19921;-71
2022/01/02 05:43:56;;;;;;;;;;;15.90;99.90;;;;;;5033149;28;19921;-63
2022/01/02 05:46:21;;;;;;;;;;;15.90;99.90;;;;;;5033204;28;19947;-64
2022/01/02 05:48:47;;;;;;;;;;;15.90;99.90;;;;;;5018233;28;19921;-62
2022/01/02 05:51:13;;;;;;;;;;;15.90;99.90;;;;;;5014067;28;19918;-64
2022/01/02 05:53:38;;;;;;;;;;;15.80;99.90;;;;;;5029005;28;19921;-63
2022/01/02 05:56:04;;;;;;;;;;;15.90;99.90;;;;;;5027306;28;19932;-62
2022/01/02 05:58:30;;;;;;;;;;;15.80;99.90;;;;;;5029108;28;20016;-63
2022/01/02 06:00:55;;;;;;;;;;;15.80;99.90;;;;;;5032831;28;19921;-62
2022/01/02 06:03:21;;;;;;;;;;;;;;;;;;5032292;28;20302;-63
2022/01/02 06:05:47;;;;;;;;;;;15.70;99.90;;;;;;5025615;28;19928;-63
2022/01/02 06:08:13;;;;;;;;;;;15.60;99.90;;;;;;5021923;28;19921;-71
2022/01/02 06:10:38;;;;;;;;;;;16.00;99.90;;;;;;5022516;28;20287;-70
2022/01/02 06:13:04;;;;;;;;;;;15.80;99.90;;;;;;5019035;28;19925;-72
2022/01/02 06:15:30;;;;;;;;;;;15.90;99.90;;;;;;5025419;28;19928;-70
2022/01/02 06:17:55;;;;;;;;;;;16.00;99.90;;;;;;5031211;28;19921;-72
2022/01/02 06:20:21;;;;;;;;;;;15.90;99.90;;;;;;5030127;28;20007;-71
2022/01/02 06:22:47;;;;;;;;;;;15.90;99.90;;;;;;5020979;28;19927;-70
2022/01/02 06:25:12;;;;;;;;;;;15.80;99.90;;;;;;5013609;28;19921;-70
2022/01/02 06:27:39;;;;;;;;;;;15.80;99.90;;;;;;5014977;28;19927;-72
2022/01/02 06:30:05;;;;;;;;;;;16.00;99.90;;;;;;5019384;28;19978;-63
2022/01/02 06:32:30;;;;;;;;;;;15.80;99.90;;;;;;5022492;28;19921;-71
2022/01/02 06:34:56;;;;;;;;;;;;;;;;;;4998600;28;20048;-69
2022/01/02 06:37:22;;;;;;;;;;;15.80;99.90;;;;;;5019978;28;19929;-71
2022/01/02 06:39:48;;;;;;;;;;;15.70;99.90;;;;;;5028896;28;19968;-72
2022/01/02 06:42:13;;;;;;;;;;;16.00;99.90;;;;;;5016647;28;19934;-70
2022/01/02 06:44:39;;;;;;;;;;;16.00;99.90;;;;;;5036108;28;19979;-71
2022/01/02 06:47:05;;;;;;;;;;;15.90;99.90;;;;;;5029308;28;19921;-69
2022/01/02 06:49:30;;;;;;;;;;;16.10;99.90;;;;;;5017182;28;19925;-71
2022/01/02 06:51:56;;;;;;;;;;;15.90;99.90;;;;;;5021158;28;19922;-71
2022/01/02 06:54:22;;;;;;;;;;;;;;;;;;5027433;28;20030;-72
2022/01/02 06:56:48;;;;;;;;;;;15.70;99.90;;;;;;5044426;28;19921;-71
2022/01/02 06:59:14;;;;;;;;;;;15.80;99.90;;;;;;5044421;28;20459;-62
2022/01/02 07:01:40;;;;;;;;;;;15.80;99.90;;;;;;5027384;28;19920;-62
2022/01/02 07:04:05;;;;;;;;;;;16.00;99.90;;;;;;5044211;28;19920;-66
2022/01/02 07:06:31;;;;;;;;;;;16.00;99.90;;;;;;5041799;28;20329;-67
2022/01/02 07:08:57;;;;;;;;;;;;;;;;;;5042180;28;19928;-67
2022/01/02 07:11:23;;;;;;;;;;;15.70;99.90;;;;;;5044086;28;19921;-70
2022/01/02 07:13:48;;;;;;;;;;;15.90;99.90;;;;;;5043281;28;19921;-71
2022/01/02 07:16:14;;;;;;;;;;;15.70;99.90;;;;;;5045575;28;19978;-70
2022/01/02 07:18:40;;;;;;;;;;;15.90;99.90;;;;;;5044850;28;19917;-68
2022/01/02 07:21:05;;;;;;;;;;;16.10;99.90;;;;;;5038173;28;20374;-63
2022/01/02 07:23:31;;;;;;;;;;;15.80;99.90;;;;;;5042207;28;20347;-64
2022/01/02 07:25:57;;;;;;;;;;;15.80;99.90;;;;;;5035696;28;20294;-62
2022/01/02 07:28:22;;;;;;;;;;;15.70;99.90;;;;;;5044586;28;20362;-66
2022/01/02 07:30:48;;;;;;;;;;;15.90;99.90;;;;;;5044858;28;20016;-63
2022/01/02 07:33:14;;;;;;;;;;;16.10;99.90;;;;;;5046061;28;19948;-62
2022/01/02 07:35:40;;;;;;;;;;;;;;;;;;5017880;28;19975;-63
2022/01/02 07:38:06;;;;;;;;;;;15.80;99.90;;;;;;5037328;28;20302;-62
2022/01/02 07:40:31;;;;;;;;;;;15.80;99.90;;;;;;5036629;28;19921;-63
2022/01/02 07:42:57;;;;;;;;;;;16.10;99.90;;;;;;5037864;28;19921;-62
2022/01/02 07:45:22;;;;;;;;;;;16.10;99.90;;;;;;5033543;28;19920;-63
2022/01/02 07:47:48;;;;;;;;;;;15.90;99.90;;;;;;5039069;28;19921;-62
2022/01/02 07:50:14;;;;;;;;;;;15.90;99.90;;;;;;5038687;28;20051;-62
2022/01/02 07:52:39;;;;;;;;;;;15.90;99.90;;;;;;5038912;28;19921;-63
2022/01/02 07:55:05;;;;;;;;;;;16.00;99.90;;;;;;5037284;28;19925;-62
2022/01/02 07:57:31;;;;;;;;;;;15.80;99.90;;;;;;5039728;28;19928;-62
2022/01/02 07:59:56;;;;;;;;;;;16.10;99.90;;;;;;5012697;28;19921;-63
2022/01/02 08:02:22;;;;;;;;;;;16.10;99.90;;;;;;5043876;28;19927;-62
2022/01/02 08:04:48;;;;;;;;;;;16.10;99.90;;;;;;5026590;28;19921;-63
2022/01/02 08:07:14;;;;;;;;;;;16.00;99.90;;;;;;5020733;28;19976;-63
2022/01/02 08:09:40;;;;;;;;;;;;;;;;;;5019724;28;19924;-63
2022/01/02 08:12:06;;;;;;;;;;;;;;;;;;5018191;28;20379;-65
2022/01/02 08:14:31;;;;;;;;;;;15.70;99.90;;;;;;5018167;28;19921;-62
2022/01/02 08:16:57;;;;;;;;;;;15.90;99.90;;;;;;5019372;28;19927;-63
2022/01/02 08:19:23;;;;;;;;;;;16.10;99.90;;;;;;5018958;28;20420;-62
2022/01/02 08:21:48;;;;;;;;;;;15.90;99.90;;;;;;5018825;28;20011;-63
2022/01/02 08:24:14;;;;;;;;;;;16.10;99.90;;;;;;5017338;28;21389;-69
2022/01/02 08:26:40;;;;;;;;;;;;;;;;;;5020791;28;20047;-63
2022/01/02 08:29:06;;;;;;;;;;;;;;;;;;5022089;28;19924;-66
2022/01/02 08:31:32;;;;;;;;;;;16.00;99.90;;;;;;5024071;28;19921;-65
2022/01/02 08:33:58;;;;;;;;;;;16.00;99.90;;;;;;5017506;28;19967;-64
2022/01/02 08:36:24;;;;;;;;;;;16.00;99.90;;;;;;5016289;28;20287;-63
2022/01/02 08:38:50;;;;;;;;;;;;;;;;;;5017218;28;20047;-66
2022/01/02 08:41:15;;;;;;;;;;;16.00;99.90;;;;;;5022379;28;20390;-63
2022/01/02 08:43:42;;;;;;;;;;;15.90;99.90;;;;;;4986876;28;19930;-64
2022/01/02 08:46:08;;;;;;;;;;;16.10;99.90;;;;;;5017505;28;19927;-64
2022/01/02 08:48:34;;;;;;;;;;;15.70;99.90;;;;;;5021718;28;19925;-63
2022/01/02 08:51:00;;;;;;;;;;;16.20;99.90;;;;;;5022187;28;19945;-64
2022/01/02 08:53:27;;;;;;;;;;;16.20;99.90;;;;;;4990685;28;19925;-62
2022/01/02 08:55:53;;;;;;;;;;;16.20;99.90;;;;;;5021566;28;19966;-68
2022/01/02 08:58:19;;;;;;;;;;;;;;;;;;5002904;28;19921;-65
2022/01/02 09:00:45;;;;;;;;;;;16.10;99.90;;;;;;5023308;28;19928;-64
2022/01/02 09:03:11;;;;;;;;;;;16.10;99.90;;;;;;5021147;28;20375;-63
2022/01/02 09:05:37;;;;;;;;;;;;;;;;;;5021832;28;19936;-62
2022/01/02 09:08:03;;;;;;;;;;;16.10;99.90;;;;;;4989077;28;19940;-63
2022/01/02 09:10:29;;;;;;;;;;;;;;;;;;5025240;28;20374;-69
2022/01/02 09:12:54;;;;;;;;;;;16.30;99.90;;;;;;5005987;28;19928;-64
2022/01/02 09:15:22;;;;;;;;;;;16.10;99.90;;;;;;5024456;28;19920;-62
2022/01/02 09:17:48;;;;;;;;;;;16.00;99.90;;;;;;5023222;28;19928;-62
2022/01/02 09:20:14;;;;;;;;;;;15.90;99.90;;;;;;5003383;28;20024;-63
2022/01/02 09:22:40;;;;;;;;;;;16.10;99.90;;;;;;5022769;28;19921;-63
2022/01/02 09:25:06;;;;;;;;;;;15.90;99.90;;;;;;5023832;28;20149;-63
2022/01/02 09:27:32;;;;;;;;;;;16.00;99.90;;;;;;5025592;28;20015;-63
2022/01/02 09:29:58;;;;;;;;;;;16.10;99.90;;;;;;5017910;28;20375;-64
2022/01/02 09:32:24;;;;;;;;;;;16.20;99.90;;;;;;5004593;28;19936;-62
2022/01/02 09:34:49;;;;;;;;;;;16.10;99.90;;;;;;5026647;28;19918;-63
2022/01/02 09:37:15;;;;;;;;;;;16.00;99.90;;;;;;5027786;28;19943;-61
2022/01/02 09:39:41;;;;;;;;;;;;;;;;;;5021136;28;20342;-68
2022/01/02 09:42:07;;;;;;;;;;;;;;;;;;5018333;28;19925;-65
2022/01/02 09:44:33;;;;;;;;;;;;;;;;;;5004428;28;19928;-63
2022/01/02 09:46:59;;;;;;;;;;;15.80;99.90;;;;;;5023702;28;19921;-64
2022/01/02 09:49:24;;;;;;;;;;;16.00;99.90;;;;;;5030411;28;20306;-62
2022/01/02 09:51:50;;;;;;;;;;;16.00;99.90;;;;;;5023555;28;19974;-64
2022/01/02 09:54:16;;;;;;;;;;;;;;;;;;5009727;28;20011;-69
2022/01/02 09:56:42;;;;;;;;;;;15.90;99.90;;;;;;5021563;28;19921;-68
2022/01/02 09:59:07;;;;;;;;;;;15.90;99.90;;;;;;5021115;28;20290;-63
2022/01/02 10:01:33;;;;;;;;;;;16.00;99.90;;;;;;5016870;28;20017;-64
2022/01/02 10:03:59;;;;;;;;;;;;;;;;;;5027304;28;19925;-62
2022/01/02 10:06:41;;;;;;;;;;;16.00;99.90;;;;;;5017087;28;20004;-64
2022/01/02 10:09:07;;;;;;;;;;;;;;;;;;5006147;28;19926;-63
2022/01/02 10:11:33;;;;;;;;;;;16.00;99.90;;;;;;5028002;28;19974;-64
2022/01/02 10:14:02;;;;;;;;;;;16.10;99.90;;;;;;5027124;28;19928;-64
2022/01/02 10:16:37;;;;;;;;;;;16.20;99.90;;;;;;5007623;28;20016;-63
2022/01/02 10:19:18;;;;;;;;;;;16.20;99.90;;;;;;5023869;28;19921;-63
2022/01/02 10:21:44;;;;;;;;;;;;;;;;;;5026643;28;19925;-67
2022/01/02 10:24:11;;;;;;;;;;;16.30;99.90;;;;;;5031831;28;19947;-66
2022/01/02 10:26:37;;;;;;;;;;;;;;;;;;5024300;28;19949;-65
2022/01/02 10:29:09;;;;;;;;;;;16.10;99.90;;;;;;5003962;28;19921;-67
2022/01/02 10:31:35;;;;;;;;;;;16.20;99.90;;;;;;5024239;28;20298;-64
2022/01/02 10:34:01;;;;;;;;;;;16.10;99.90;;;;;;5008439;28;19983;-64
2022/01/02 10:36:27;;;;;;;;;;;;;;;;;;5008169;28;19932;-68
2022/01/02 10:39:06;;;;;;;;;;;16.20;99.90;;;;;;5027156;28;19917;-64
2022/01/02 10:41:33;;;;;;;;;;;16.20;99.90;;;;;;5028536;28;20321;-64
2022/01/02 10:44:18;;;;;;;;;;;15.90;99.90;;;;;;5026725;28;19939;-63
2022/01/02 10:47:02;;;;;;;;;;;16.10;99.90;;;;;;5015863;28;19929;-64
2022/01/02 10:49:47;;;;;;;;;;;16.00;99.90;;;;;;5032100;28;19968;-64
2022/01/02 10:52:31;;;;;;;;;;;16.00;99.90;;;;;;5024386;28;19921;-67
2022/01/02 10:54:58;;;;;;;;;;;16.30;99.90;;;;;;5026525;28;19921;-70
2022/01/02 10:57:24;;;;;;;;;;;16.10;99.90;;;;;;5024827;28;19929;-70
2022/01/02 10:59:50;;;;;;;;;;;15.90;99.90;;;;;;5008557;28;19944;-67
2022/01/02 11:02:16;;;;;;;;;;;16.30;99.90;;;;;;5023177;28;19924;-68
2022/01/02 11:04:48;;;;;;;;;;;16.20;99.90;;;;;;5024032;28;19921;-68
2022/01/02 11:07:19;;;;;;;;;;;16.00;99.90;;;;;;5026522;28;19968;-67
2022/01/02 11:09:45;;;;;;;;;;;16.00;99.90;;;;;;5024495;28;19972;-63
2022/01/02 11:12:11;;;;;;;;;;;16.20;99.90;;;;;;5029250;28;19961;-68
2022/01/02 11:14:36;;;;;;;;;;;16.10;99.90;;;;;;5024434;28;19975;-64
2022/01/02 11:17:03;;;;;;;;;;;15.80;99.90;;;;;;5027530;28;20048;-67
2022/01/02 11:19:30;;;;;;;;;;;16.00;99.90;;;;;;5023794;28;19924;-65
2022/01/02 11:21:56;;;;;;;;;;;15.80;99.90;;;;;;5024344;28;19921;-63
2022/01/02 11:24:23;;;;;;;;;;;16.10;99.90;;;;;;5009929;28;20290;-68
2022/01/02 11:26:54;;;;;;;;;;;16.10;99.90;;;;;;5023525;28;19968;-68
2022/01/02 11:29:20;;;;;;;;;;;;;;;;;;5010537;28;19931;-67
2022/01/02 11:31:46;;;;;;;;;;;16.00;99.90;;;;;;5023732;28;19921;-67
2022/01/02 11:34:20;;;;;;;;;;;16.10;99.90;;;;;;5024964;28;19951;-68
2022/01/02 11:36:45;;;;;;;;;;;16.00;99.90;;;;;;5024082;28;20462;-65
2022/01/02 11:39:11;;;;;;;;;;;16.20;99.90;;;;;;5024120;28;20015;-64
2022/01/02 11:41:43;;;;;;;;;;;16.00;99.90;;;;;;5022694;28;20010;-64
2022/01/02 11:44:15;;;;;;;;;;;16.10;99.90;;;;;;5022827;28;19975;-63
2022/01/02 11:47:01;;;;;;;;;;;16.20;99.90;;;;;;5024032;28;19922;-63
2022/01/02 11:49:43;;;;;;;;;;;16.00;99.90;;;;;;5003846;28;19921;-65
2022/01/02 11:52:09;;;;;;;;;;;15.90;99.90;;;;;;5025286;28;19921;-63
2022/01/02 11:54:43;;;;;;;;;;;16.10;99.90;;;;;;5023151;28;20287;-65
2022/01/02 11:57:14;;;;;;;;;;;16.00;99.90;;;;;;5020338;28;19960;-66
2022/01/02 11:59:40;;;;;;;;;;;16.10;99.90;;;;;;5023428;28;19925;-63
2022/01/02 12:02:09;;;;;;;;;;;16.10;99.90;;;;;;5021602;28;19971;-68
2022/01/02 12:04:53;;;;;;;;;;;16.20;99.90;;;;;;5020738;28;19921;-63
2022/01/02 12:07:41;;;;;;;;;;;16.40;99.90;;;;;;5022459;28;19928;-66
2022/01/02 12:10:17;;;;;;;;;;;16.10;99.90;;;;;;5021727;28;19921;-62
2022/01/02 12:12:44;;;;;;;;;;;;;;;;;;5024690;28;19928;-65
2022/01/02 12:15:09;;;;;;;;;;;16.30;99.90;;;;;;5020821;28;19921;-64
2022/01/02 12:17:55;;;;;;;;;;;16.30;99.90;;;;;;5022256;28;20302;-63
2022/01/02 12:20:21;;;;;;;;;;;;;;;;;;5022589;28;19983;-65
2022/01/02 12:22:48;;;;;;;;;;;16.10;99.90;;;;;;5022222;28;19925;-64
2022/01/02 12:25:15;;;;;;;;;;;16.00;99.90;;;;;;5022725;28;20370;-70
2022/01/02 12:27:41;;;;;;;;;;;;;;;;;;5004308;28;20003;-64
2022/01/02 12:30:07;;;;;;;;;;;16.40;99.90;;;;;;5004463;28;19968;-64
2022/01/02 12:32:32;;;;;;;;;;;16.30;99.90;;;;;;5021973;28;21374;-64
2022/01/02 12:34:58;;;;;;;;;;;16.10;99.90;;;;;;5007634;28;19921;-63
2022/01/02 12:37:27;;;;;;;;;;;16.00;99.90;;;;;;5013113;28;20283;-69
2022/01/02 12:39:53;;;;;;;;;;;16.60;99.90;;;;;;5024421;28;20383;-69
2022/01/02 12:42:19;;;;;;;;;;;16.10;99.90;;;;;;5029135;28;19928;-63
2022/01/02 12:44:44;;;;;;;;;;;16.30;99.90;;;;;;5003269;28;20088;-66
2022/01/02 12:47:14;;;;;;;;;;;16.00;99.90;;;;;;5011699;28;20371;-63
2022/01/02 12:49:40;;;;;;;;;;;16.10;99.90;;;;;;4997902;28;19921;-62
2022/01/02 12:52:07;;;;;;;;;;;16.20;99.90;;;;;;5015655;28;19975;-66
2022/01/02 12:54:33;;;;;;;;;;;;;;;;;;5030180;28;20306;-70
2022/01/02 12:57:04;;;;;;;;;;;16.30;99.90;;;;;;5020664;28;21742;-64
2022/01/02 12:59:36;;;;;;;;;;;16.00;99.90;;;;;;5023390;28;20016;-66
2022/01/02 13:02:06;;;;;;;;;;;16.20;99.90;;;;;;5028148;28;19928;-64
2022/01/02 13:04:31;;;;;;;;;;;16.10;99.90;;;;;;5016469;28;19974;-66
2022/01/02 13:07:04;;;;;;;;;;;16.30;99.90;;;;;;5031368;28;19929;-63
2022/01/02 13:09:30;;;;;;;;;;;;;;;;;;5015018;28;19927;-64
2022/01/02 13:11:56;;;;;;;;;;;;;;;;;;4996447;28;20393;-64
2022/01/02 13:14:32;;;;;;;;;;;16.20;99.90;;;;;;5015272;28;19967;-63
2022/01/02 13:16:58;;;;;;;;;;;16.20;99.90;;;;;;5016047;28;19972;-63
2022/01/02 13:19:23;;;;;;;;;;;15.90;99.90;;;;;;5015017;28;19976;-70
2022/01/02 13:21:49;;;;;;;;;;;16.20;99.90;;;;;;5006250;28;19967;-64
2022/01/02 13:24:27;;;;;;;;;;;16.30;99.90;;;;;;5025351;28;19921;-63
2022/01/02 13:26:53;;;;;;;;;;;16.20;99.90;;;;;;5016055;28;20319;-68
2022/01/02 13:29:26;;;;;;;;;;;16.10;99.90;;;;;;5016906;28;19928;-70
2022/01/02 13:31:52;;;;;;;;;;;16.30;99.90;;;;;;5033980;28;19995;-65
2022/01/02 13:34:21;;;;;;;;;;;16.30;99.90;;;;;;5033228;28;19929;-70
2022/01/02 13:37:00;;;;;;;;;;;16.10;99.90;;;;;;4980150;28;19921;-66
2022/01/02 13:39:39;;;;;;;;;;;16.30;99.90;;;;;;5017792;28;20007;-67
2022/01/02 13:42:05;;;;;;;;;;;16.30;99.90;;;;;;5033025;28;19921;-66
2022/01/02 13:44:38;;;;;;;;;;;16.10;99.90;;;;;;5016014;28;19925;-68
2022/01/02 13:47:04;;;;;;;;;;;16.20;99.90;;;;;;5033740;28;19928;-62
2022/01/02 13:49:30;;;;;;;;;;;;;;;;;;5032005;28;19928;-62
2022/01/02 13:52:02;;;;;;;;;;;16.30;99.90;;;;;;5026257;28;19918;-67
2022/01/02 13:54:28;;;;;;;;;;;16.30;99.90;;;;;;5014157;28;19921;-62
2022/01/02 13:56:57;;;;;;;;;;;16.20;99.90;;;;;;5014094;28;20385;-63
2022/01/02 13:59:24;;;;;;;;;;;16.40;99.90;;;;;;4997272;28;19925;-64
2022/01/02 14:01:49;;;;;;;;;;;16.30;99.90;;;;;;5028578;28;19922;-62
2022/01/02 14:04:16;;;;;;;;;;;16.30;99.90;;;;;;5028821;28;20016;-62
2022/01/02 14:06:42;;;;;;;;;;;16.50;99.90;;;;;;5015151;28;19925;-62
2022/01/02 14:09:09;;;;;;;;;;;16.30;99.90;;;;;;5025728;28;19975;-71
2022/01/02 14:11:35;;;;;;;;;;;16.30;99.90;;;;;;5016529;28;20385;-69
2022/01/02 14:17:14;;;;;;;;;;;16.40;99.90;;;;;;5014158;28;19921;-70
2022/01/02 14:19:43;;;;;;;;;;;16.30;99.90;;;;;;5022820;28;19921;-65
2022/01/02 14:22:13;;;;;;;;;;;16.60;99.90;;;;;;5018952;28;19929;-68
2022/01/02 14:24:38;;;;;;;;;;;16.50;99.90;;;;;;5031425;28;20386;-67
2022/01/02 14:27:06;;;;;;;;;;;16.50;99.90;;;;;;5010967;28;19975;-67
2022/01/02 14:29:31;;;;;;;;;;;16.50;99.90;;;;;;4996237;28;19968;-68
2022/01/02 14:31:57;;;;;;;;;;;16.50;99.90;;;;;;5013983;28;19921;-69
2022/01/02 14:34:23;;;;;;;;;;;16.20;99.90;;;;;;4995575;28;19964;-68
2022/01/02 14:36:48;;;;;;;;;;;16.40;99.90;;;;;;5013620;28;19945;-68
2022/01/02 14:39:14;;;;;;;;;;;16.60;99.90;;;;;;4996126;28;20502;-66
2022/01/02 14:41:40;;;;;;;;;;;16.40;99.90;;;;;;4997497;28;19921;-63
2022/01/02 14:44:09;;;;;;;;;;;16.50;99.90;;;;;;5028285;28;19928;-63
2022/01/02 14:46:35;;;;;;;;;;;16.40;99.90;;;;;;5032576;28;19974;-64